Time,TemperatureF,DewpointF,PressureIn,WindDirection,WindDirectionDegrees,WindSpeedMPH,WindSpeedGustMPH,Humidity,HourlyPrecipIn,Conditions,Clouds,dailyrainin,SoftwareType,DateUTC
2013-04-29 00:00:00,56.8,45.2,30.18,SSW,197,0.0,1.0,65,0.00,,---,0.01,VWS V14.01,2013-04-29 04:00:00,
2013-04-29 00:01:00,56.8,45.2,30.18,SSW,197,0.0,1.0,65,0.00,,---,0.01,VWS V14.01,2013-04-29 04:01:00,
2013-04-29 00:06:00,56.7,45.1,30.18,SSW,198,0.0,0.0,65,0.00,,---,0.00,VWS V14.01,2013-04-29 04:06:00,
2013-04-29 00:11:00,56.6,44.6,30.18,SSW,200,0.0,1.0,64,0.00,,---,0.00,VWS V14.01,2013-04-29 04:11:00,
2013-04-29 00:16:00,56.5,44.5,30.18,NW,311,0.0,2.0,64,0.00,,---,0.00,VWS V14.01,2013-04-29 04:16:00,
2013-04-29 00:21:00,56.5,44.5,30.18,NW,311,0.0,2.0,64,0.00,,---,0.00,VWS V14.01,2013-04-29 04:21:00,
2013-04-29 00:26:00,56.5,44.5,30.18,SSW,205,0.0,2.0,64,0.00,,---,0.00,VWS V14.01,2013-04-29 04:26:00,
2013-04-29 00:31:00,56.5,44.9,30.18,SSW,205,1.0,2.0,65,0.00,,---,0.00,VWS V14.01,2013-04-29 04:31:00,
2013-04-29 00:36:00,56.4,44.8,30.18,ESE,120,0.0,1.0,65,0.00,,---,0.00,VWS V14.01,2013-04-29 04:36:00,
2013-04-29 00:41:00,56.4,44.8,30.18,SSW,196,0.0,2.0,65,0.00,,---,0.00,VWS V14.01,2013-04-29 04:41:00,
2013-04-29 00:46:00,56.4,45.2,30.18,SSE,158,0.0,3.0,66,0.00,,---,0.00,VWS V14.01,2013-04-29 04:46:00,
2013-04-29 00:51:00,56.4,45.2,30.18,South,191,1.0,3.0,66,0.00,,---,0.00,VWS V14.01,2013-04-29 04:51:00,
2013-04-29 00:56:00,56.4,45.6,30.18,SW,216,1.0,3.0,67,0.00,,---,0.00,VWS V14.01,2013-04-29 04:56:00,
2013-04-29 01:01:00,56.3,45.5,30.18,SE,136,0.0,3.0,67,0.00,,---,0.00,VWS V14.01,2013-04-29 05:01:00,
2013-04-29 01:06:00,56.3,45.9,30.18,SW,214,0.0,6.0,68,0.00,,---,0.00,VWS V14.01,2013-04-29 05:06:00,
2013-04-29 01:11:00,56.2,46.6,30.18,WSW,238,1.0,6.0,70,0.00,,---,0.00,VWS V14.01,2013-04-29 05:11:00,
2013-04-29 01:16:00,56.1,47.2,30.18,ESE,123,1.0,6.0,72,0.00,,---,0.00,VWS V14.01,2013-04-29 05:16:00,
2013-04-29 01:21:00,55.8,47.3,30.18,SE,143,0.0,6.0,73,0.00,,---,0.00,VWS V14.01,2013-04-29 05:21:00,
2013-04-29 01:26:00,55.6,48.2,30.18,SSW,208,0.0,6.0,76,0.00,,---,0.00,VWS V14.01,2013-04-29 05:26:00,
2013-04-29 01:31:00,55.2,48.8,30.18,South,173,0.0,6.0,79,0.00,,---,0.00,VWS V14.01,2013-04-29 05:31:00,
2013-04-29 01:36:00,54.8,49.1,30.18,SW,219,0.0,2.0,81,0.01,,---,0.01,VWS V14.01,2013-04-29 05:36:00,
2013-04-29 01:41:00,54.3,49.3,30.18,East,82,0.0,2.0,83,0.01,,---,0.01,VWS V14.01,2013-04-29 05:41:00,
2013-04-29 01:46:00,53.9,49.2,30.17,SW,225,0.0,4.0,84,0.01,,---,0.01,VWS V14.01,2013-04-29 05:46:00,
2013-04-29 01:51:00,53.7,49.6,30.18,SW,226,0.0,4.0,86,0.01,,---,0.01,VWS V14.01,2013-04-29 05:51:00,
2013-04-29 01:56:00,53.5,49.7,30.17,SE,142,0.0,4.0,87,0.01,,---,0.01,VWS V14.01,2013-04-29 05:56:00,
2013-04-29 02:01:00,53.3,49.5,30.17,South,169,0.0,4.0,87,0.01,,---,0.01,VWS V14.01,2013-04-29 06:01:00,
2013-04-29 02:06:00,53.2,49.7,30.17,South,169,0.0,0.0,88,0.02,,---,0.02,VWS V14.01,2013-04-29 06:06:00,
2013-04-29 02:11:00,53.2,50.0,30.17,South,169,0.0,0.0,89,0.02,,---,0.02,VWS V14.01,2013-04-29 06:11:00,
2013-04-29 02:16:00,53.0,50.2,30.17,South,170,0.0,1.0,90,0.03,,---,0.03,VWS V14.01,2013-04-29 06:16:00,
2013-04-29 02:21:00,53.0,50.2,30.17,South,171,0.0,1.0,90,0.03,,---,0.03,VWS V14.01,2013-04-29 06:21:00,
2013-04-29 02:26:00,53.0,50.2,30.16,South,171,0.0,1.0,90,0.03,,---,0.03,VWS V14.01,2013-04-29 06:26:00,
2013-04-29 02:31:00,53.0,50.5,30.16,SSE,156,0.0,1.0,91,0.03,,---,0.03,VWS V14.01,2013-04-29 06:31:00,
2013-04-29 02:36:00,53.0,50.5,30.15,SSE,158,0.0,0.0,91,0.03,,---,0.03,VWS V14.01,2013-04-29 06:36:00,
2013-04-29 02:41:00,53.0,50.7,30.15,South,183,0.0,1.0,92,0.03,,---,0.03,VWS V14.01,2013-04-29 06:41:00,
2013-04-29 02:46:00,53.0,50.7,30.15,South,183,0.0,1.0,92,0.03,,---,0.03,VWS V14.01,2013-04-29 06:46:00,
2013-04-29 02:51:00,53.1,50.8,30.14,South,183,0.0,1.0,92,0.03,,---,0.03,VWS V14.01,2013-04-29 06:51:00,
2013-04-29 02:56:00,53.1,50.8,30.14,South,183,0.0,1.0,92,0.03,,---,0.03,VWS V14.01,2013-04-29 06:56:00,
2013-04-29 03:01:00,53.1,51.1,30.14,South,183,0.0,1.0,93,0.03,,---,0.03,VWS V14.01,2013-04-29 07:01:00,
2013-04-29 03:06:00,53.2,51.2,30.14,South,183,0.0,0.0,93,0.02,,---,0.04,VWS V14.01,2013-04-29 07:06:00,
2013-04-29 03:11:00,53.2,51.2,30.14,South,183,0.0,0.0,93,0.02,,---,0.04,VWS V14.01,2013-04-29 07:11:00,
2013-04-29 03:16:00,53.2,51.2,30.14,South,183,0.0,0.0,93,0.02,,---,0.04,VWS V14.01,2013-04-29 07:16:00,
2013-04-29 03:21:00,53.2,51.2,30.14,South,184,0.0,0.0,93,0.02,,---,0.04,VWS V14.01,2013-04-29 07:21:00,
2013-04-29 03:26:00,53.2,51.2,30.14,SSE,166,0.0,2.0,93,0.02,,---,0.04,VWS V14.01,2013-04-29 07:26:00,
2013-04-29 03:31:00,53.2,51.2,30.14,SSE,166,0.0,2.0,93,0.02,,---,0.04,VWS V14.01,2013-04-29 07:31:00,
2013-04-29 03:36:00,53.2,51.2,30.14,SSE,166,0.0,0.0,93,0.01,,---,0.04,VWS V14.01,2013-04-29 07:36:00,
2013-04-29 03:41:00,53.2,51.2,30.13,SSE,166,0.0,0.0,93,0.01,,---,0.04,VWS V14.01,2013-04-29 07:41:00,
2013-04-29 03:46:00,53.3,51.6,30.13,SSE,166,0.0,0.0,94,0.01,,---,0.04,VWS V14.01,2013-04-29 07:46:00,
2013-04-29 03:51:00,53.2,51.5,30.13,SSE,166,0.0,0.0,94,0.01,,---,0.04,VWS V14.01,2013-04-29 07:51:00,
2013-04-29 03:56:00,53.2,51.5,30.13,SSE,166,0.0,0.0,94,0.01,,---,0.04,VWS V14.01,2013-04-29 07:56:00,
2013-04-29 04:01:00,53.2,51.5,30.13,SSE,166,0.0,0.0,94,0.01,,---,0.04,VWS V14.01,2013-04-29 08:01:00,
2013-04-29 04:06:00,53.2,51.5,30.13,SSE,166,0.0,0.0,94,0.00,,---,0.04,VWS V14.01,2013-04-29 08:06:00,
2013-04-29 04:11:00,53.1,51.4,30.13,SSE,166,0.0,0.0,94,0.00,,---,0.04,VWS V14.01,2013-04-29 08:11:00,
2013-04-29 04:16:00,53.1,51.4,30.13,SSE,166,0.0,0.0,94,0.00,,---,0.04,VWS V14.01,2013-04-29 08:16:00,
2013-04-29 04:21:00,53.0,51.3,30.13,SSE,166,0.0,0.0,94,0.00,,---,0.04,VWS V14.01,2013-04-29 08:21:00,
2013-04-29 04:26:00,53.0,51.3,30.13,SSE,166,0.0,0.0,94,0.00,,---,0.04,VWS V14.01,2013-04-29 08:26:00,
2013-04-29 04:31:00,53.0,51.3,30.12,SSE,166,0.0,0.0,94,0.00,,---,0.04,VWS V14.01,2013-04-29 08:31:00,
2013-04-29 04:36:00,53.0,51.3,30.12,SSE,166,0.0,0.0,94,0.00,,---,0.04,VWS V14.01,2013-04-29 08:36:00,
2013-04-29 04:41:00,53.0,51.3,30.12,SSE,166,0.0,0.0,94,0.00,,---,0.04,VWS V14.01,2013-04-29 08:41:00,
2013-04-29 04:46:00,53.0,51.3,30.13,SSE,166,0.0,0.0,94,0.00,,---,0.04,VWS V14.01,2013-04-29 08:46:00,
2013-04-29 04:51:00,53.0,51.3,30.12,SSE,166,0.0,0.0,94,0.00,,---,0.04,VWS V14.01,2013-04-29 08:51:00,
2013-04-29 04:56:00,53.0,51.3,30.12,SSE,166,0.0,0.0,94,0.00,,---,0.04,VWS V14.01,2013-04-29 08:56:00,
2013-04-29 05:01:00,53.0,51.3,30.12,SSE,165,0.0,0.0,94,0.00,,---,0.04,VWS V14.01,2013-04-29 09:01:00,
2013-04-29 05:06:00,53.0,51.3,30.12,SSE,165,0.0,0.0,94,0.00,,---,0.04,VWS V14.01,2013-04-29 09:06:00,
2013-04-29 05:11:00,53.0,51.6,30.12,SSE,165,0.0,0.0,95,0.00,,---,0.04,VWS V14.01,2013-04-29 09:11:00,
2013-04-29 05:16:00,53.1,51.7,30.12,SE,126,0.0,1.0,95,0.01,,---,0.05,VWS V14.01,2013-04-29 09:16:00,
2013-04-29 05:21:00,53.0,51.6,30.12,SE,126,0.0,1.0,95,0.01,,---,0.05,VWS V14.01,2013-04-29 09:21:00,
2013-04-29 05:26:00,53.1,51.7,30.12,SE,126,0.0,1.0,95,0.02,,---,0.06,VWS V14.01,2013-04-29 09:26:00,
2013-04-29 05:31:00,53.1,51.7,30.12,SE,126,0.0,1.0,95,0.02,,---,0.06,VWS V14.01,2013-04-29 09:31:00,
2013-04-29 05:36:00,53.1,51.7,30.12,SE,126,0.0,0.0,95,0.02,,---,0.06,VWS V14.01,2013-04-29 09:36:00,
2013-04-29 05:41:00,53.1,51.7,30.11,SE,126,0.0,1.0,95,0.03,,---,0.07,VWS V14.01,2013-04-29 09:41:00,
2013-04-29 05:46:00,53.1,51.7,30.12,SE,125,0.0,1.0,95,0.03,,---,0.07,VWS V14.01,2013-04-29 09:46:00,
2013-04-29 05:51:00,53.2,51.8,30.11,SE,125,0.0,1.0,95,0.03,,---,0.07,VWS V14.01,2013-04-29 09:51:00,
2013-04-29 05:56:00,53.2,51.8,30.11,SE,126,0.0,1.0,95,0.05,,---,0.09,VWS V14.01,2013-04-29 09:56:00,
2013-04-29 06:01:00,53.2,51.8,30.11,SE,125,0.0,1.0,95,0.05,,---,0.09,VWS V14.01,2013-04-29 10:01:00,
2013-04-29 06:06:00,53.2,51.8,30.11,SE,125,0.0,0.0,95,0.05,,---,0.09,VWS V14.01,2013-04-29 10:06:00,
2013-04-29 06:11:00,53.2,51.8,30.11,SE,125,0.0,0.0,95,0.06,,---,0.10,VWS V14.01,2013-04-29 10:11:00,
2013-04-29 06:16:00,53.2,51.8,30.11,SE,124,0.0,0.0,95,0.06,,---,0.10,VWS V14.01,2013-04-29 10:16:00,
2013-04-29 06:21:00,53.2,51.8,30.12,SE,124,0.0,0.0,95,0.07,,---,0.11,VWS V14.01,2013-04-29 10:21:00,
2013-04-29 06:26:00,53.3,51.9,30.12,SE,124,0.0,0.0,95,0.07,,---,0.11,VWS V14.01,2013-04-29 10:26:00,
2013-04-29 06:31:00,53.3,51.9,30.12,SE,124,0.0,0.0,95,0.07,,---,0.11,VWS V14.01,2013-04-29 10:31:00,
2013-04-29 06:36:00,53.4,52.0,30.12,SE,124,0.0,0.0,95,0.05,,---,0.11,VWS V14.01,2013-04-29 10:36:00,
2013-04-29 06:41:00,53.4,52.0,30.12,SE,124,0.0,0.0,95,0.06,,---,0.12,VWS V14.01,2013-04-29 10:41:00,
2013-04-29 06:46:00,53.4,52.0,30.12,SE,124,0.0,0.0,95,0.06,,---,0.12,VWS V14.01,2013-04-29 10:46:00,
2013-04-29 06:51:00,53.4,52.0,30.13,SE,124,0.0,0.0,95,0.06,,---,0.12,VWS V14.01,2013-04-29 10:51:00,
2013-04-29 06:56:00,53.4,52.3,30.13,SE,124,0.0,0.0,96,0.07,,---,0.13,VWS V14.01,2013-04-29 10:56:00,
2013-04-29 07:01:00,53.5,52.4,30.13,SE,124,0.0,0.0,96,0.08,,---,0.14,VWS V14.01,2013-04-29 11:01:00,
2013-04-29 07:06:00,53.5,52.4,30.13,South,181,0.0,0.0,96,0.05,,---,0.14,VWS V14.01,2013-04-29 11:06:00,
2013-04-29 07:11:00,53.5,52.4,30.13,South,183,0.0,1.0,96,0.06,,---,0.15,VWS V14.01,2013-04-29 11:11:00,
2013-04-29 07:16:00,53.6,52.5,30.13,SSW,211,0.0,1.0,96,0.06,,---,0.15,VWS V14.01,2013-04-29 11:16:00,
2013-04-29 07:21:00,53.6,52.5,30.13,SSW,210,0.0,1.0,96,0.07,,---,0.16,VWS V14.01,2013-04-29 11:21:00,
2013-04-29 07:26:00,53.6,52.5,30.13,SSW,210,0.0,1.0,96,0.07,,---,0.16,VWS V14.01,2013-04-29 11:26:00,
2013-04-29 07:31:00,53.6,52.5,30.13,SSW,210,0.0,1.0,96,0.07,,---,0.16,VWS V14.01,2013-04-29 11:31:00,
2013-04-29 07:36:00,53.6,52.5,30.13,SSW,210,0.0,0.0,96,0.05,,---,0.16,VWS V14.01,2013-04-29 11:36:00,
2013-04-29 07:41:00,53.7,52.6,30.13,SSW,210,0.0,0.0,96,0.05,,---,0.16,VWS V14.01,2013-04-29 11:41:00,
2013-04-29 07:46:00,53.7,52.6,30.13,SSW,210,0.0,0.0,96,0.05,,---,0.16,VWS V14.01,2013-04-29 11:46:00,
2013-04-29 07:51:00,53.7,52.6,30.13,SSW,210,0.0,0.0,96,0.05,,---,0.16,VWS V14.01,2013-04-29 11:51:00,
2013-04-29 07:56:00,53.7,52.6,30.14,SSW,210,0.0,0.0,96,0.06,,---,0.17,VWS V14.01,2013-04-29 11:56:00,
2013-04-29 08:01:00,53.8,52.7,30.13,SSW,210,0.0,0.0,96,0.06,,---,0.17,VWS V14.01,2013-04-29 12:01:00,
2013-04-29 08:06:00,53.8,52.7,30.14,SSW,210,0.0,0.0,96,0.04,,---,0.18,VWS V14.01,2013-04-29 12:06:00,
2013-04-29 08:11:00,53.9,52.8,30.13,SSW,210,0.0,0.0,96,0.05,,---,0.19,VWS V14.01,2013-04-29 12:11:00,
2013-04-29 08:16:00,54.0,52.9,30.13,SSW,210,0.0,0.0,96,0.05,,---,0.19,VWS V14.01,2013-04-29 12:16:00,
2013-04-29 08:21:00,54.0,52.9,30.13,SSW,210,0.0,0.0,96,0.05,,---,0.19,VWS V14.01,2013-04-29 12:21:00,
2013-04-29 08:26:00,54.1,53.0,30.13,SSW,210,0.0,0.0,96,0.05,,---,0.19,VWS V14.01,2013-04-29 12:26:00,
2013-04-29 08:31:00,54.1,53.0,30.13,SSW,210,0.0,0.0,96,0.05,,---,0.19,VWS V14.01,2013-04-29 12:31:00,
2013-04-29 08:36:00,54.2,53.1,30.13,SSW,210,0.0,0.0,96,0.03,,---,0.19,VWS V14.01,2013-04-29 12:36:00,
2013-04-29 08:41:00,54.3,53.2,30.13,SSW,210,0.0,0.0,96,0.03,,---,0.19,VWS V14.01,2013-04-29 12:41:00,
2013-04-29 08:46:00,54.4,53.3,30.12,SSW,210,0.0,0.0,96,0.03,,---,0.19,VWS V14.01,2013-04-29 12:46:00,
2013-04-29 08:51:00,54.4,53.3,30.13,SSE,164,0.0,1.0,96,0.03,,---,0.19,VWS V14.01,2013-04-29 12:51:00,
2013-04-29 08:56:00,54.5,53.4,30.12,SSE,165,0.0,1.0,96,0.03,,---,0.19,VWS V14.01,2013-04-29 12:56:00,
2013-04-29 09:01:00,54.6,53.5,30.13,SSE,165,0.0,1.0,96,0.03,,---,0.19,VWS V14.01,2013-04-29 13:01:00,
2013-04-29 09:06:00,54.7,53.6,30.12,SSE,165,0.0,0.0,96,0.02,,---,0.20,VWS V14.01,2013-04-29 13:06:00,
2013-04-29 09:11:00,54.7,53.6,30.12,SSE,165,0.0,0.0,96,0.02,,---,0.20,VWS V14.01,2013-04-29 13:11:00,
2013-04-29 09:16:00,54.8,53.7,30.12,SSE,165,0.0,0.0,96,0.02,,---,0.20,VWS V14.01,2013-04-29 13:16:00,
2013-04-29 09:21:00,54.9,53.8,30.12,SSE,165,0.0,0.0,96,0.02,,---,0.20,VWS V14.01,2013-04-29 13:21:00,
2013-04-29 09:26:00,54.9,53.8,30.12,SSE,159,0.0,2.0,96,0.02,,---,0.20,VWS V14.01,2013-04-29 13:26:00,
2013-04-29 09:31:00,54.9,53.8,30.12,SSE,160,0.0,2.0,96,0.02,,---,0.20,VWS V14.01,2013-04-29 13:31:00,
2013-04-29 09:35:00,55.0,53.9,30.12,SSE,161,0.0,0.0,96,0.01,,---,0.20,VWS V14.01,2013-04-29 13:35:00,
2013-04-29 09:40:00,55.0,53.9,30.12,SSE,160,0.0,0.0,96,0.01,,---,0.20,VWS V14.01,2013-04-29 13:40:00,
2013-04-29 09:45:00,55.2,54.1,30.11,SSE,161,0.0,0.0,96,0.01,,---,0.20,VWS V14.01,2013-04-29 13:45:00,
2013-04-29 09:50:00,55.3,54.5,30.11,SSE,161,0.0,0.0,97,0.01,,---,0.20,VWS V14.01,2013-04-29 13:50:00,
2013-04-29 09:55:00,55.4,54.6,30.11,SSE,160,0.0,0.0,97,0.01,,---,0.20,VWS V14.01,2013-04-29 13:55:00,
2013-04-29 10:00:00,55.5,54.7,30.11,SSW,198,0.0,0.0,97,0.01,,---,0.20,VWS V14.01,2013-04-29 14:00:00,
2013-04-29 10:05:00,55.5,54.7,30.11,SSW,198,0.0,0.0,97,0.01,,---,0.20,VWS V14.01,2013-04-29 14:05:00,
2013-04-29 10:10:00,55.6,54.8,30.11,SSW,198,0.0,0.0,97,0.01,,---,0.20,VWS V14.01,2013-04-29 14:10:00,
2013-04-29 10:15:00,55.7,54.9,30.11,SSW,198,0.0,0.0,97,0.01,,---,0.20,VWS V14.01,2013-04-29 14:15:00,
2013-04-29 10:20:00,55.9,55.1,30.11,SSW,199,0.0,1.0,97,0.02,,---,0.21,VWS V14.01,2013-04-29 14:20:00,
2013-04-29 10:25:00,55.9,55.1,30.11,SSW,198,0.0,1.0,97,0.02,,---,0.21,VWS V14.01,2013-04-29 14:25:00,
2013-04-29 10:30:00,56.0,55.2,30.11,SSW,198,0.0,1.0,97,0.02,,---,0.21,VWS V14.01,2013-04-29 14:30:00,
2013-04-29 10:35:00,56.1,55.3,30.11,SSW,198,0.0,0.0,97,0.01,,---,0.21,VWS V14.01,2013-04-29 14:35:00,
2013-04-29 10:40:00,56.3,55.5,30.11,SSW,198,0.0,0.0,97,0.01,,---,0.21,VWS V14.01,2013-04-29 14:40:00,
2013-04-29 10:45:00,56.5,55.7,30.11,SSW,198,0.0,0.0,97,0.02,,---,0.22,VWS V14.01,2013-04-29 14:45:00,
2013-04-29 10:50:00,56.5,55.7,30.11,SSW,198,0.0,0.0,97,0.02,,---,0.22,VWS V14.01,2013-04-29 14:50:00,
2013-04-29 10:55:00,56.7,55.9,30.11,SSW,198,0.0,0.0,97,0.02,,---,0.22,VWS V14.01,2013-04-29 14:55:00,
2013-04-29 11:00:00,56.7,55.9,30.11,SSW,198,0.0,0.0,97,0.02,,---,0.22,VWS V14.01,2013-04-29 15:00:00,
2013-04-29 11:05:00,56.9,56.1,30.11,SSW,198,0.0,0.0,97,0.02,,---,0.22,VWS V14.01,2013-04-29 15:05:00,
2013-04-29 11:10:00,56.9,56.1,30.11,SSW,198,0.0,0.0,97,0.02,,---,0.22,VWS V14.01,2013-04-29 15:10:00,
2013-04-29 11:15:00,57.1,56.3,30.11,SSW,198,0.0,0.0,97,0.03,,---,0.23,VWS V14.01,2013-04-29 15:15:00,
2013-04-29 11:20:00,57.2,56.4,30.10,SSW,198,0.0,0.0,97,0.03,,---,0.23,VWS V14.01,2013-04-29 15:20:00,
2013-04-29 11:25:00,57.4,56.6,30.11,SSW,198,0.0,0.0,97,0.03,,---,0.23,VWS V14.01,2013-04-29 15:25:00,
2013-04-29 11:30:00,57.5,56.7,30.11,SSW,198,0.0,0.0,97,0.03,,---,0.23,VWS V14.01,2013-04-29 15:30:00,
2013-04-29 11:35:00,57.8,57.0,30.10,SSW,198,0.0,0.0,97,0.02,,---,0.23,VWS V14.01,2013-04-29 15:35:00,
2013-04-29 11:40:00,58.0,57.2,30.11,SSW,198,0.0,0.0,97,0.02,,---,0.23,VWS V14.01,2013-04-29 15:40:00,
2013-04-29 11:45:00,58.2,57.4,30.10,NNW,344,0.0,1.0,97,0.02,,---,0.23,VWS V14.01,2013-04-29 15:45:00,
2013-04-29 11:50:00,58.3,57.5,30.10,NNE,15,0.0,1.0,97,0.02,,---,0.23,VWS V14.01,2013-04-29 15:50:00,
2013-04-29 11:55:00,58.5,57.7,30.10,SSW,194,0.0,1.0,97,0.02,,---,0.23,VWS V14.01,2013-04-29 15:55:00,
2013-04-29 12:00:00,58.6,57.8,30.10,SSW,208,0.0,1.0,97,0.03,,---,0.24,VWS V14.01,2013-04-29 16:00:00,
2013-04-29 12:05:00,58.8,58.0,30.10,SSW,193,0.0,2.0,97,0.02,,---,0.24,VWS V14.01,2013-04-29 16:05:00,
2013-04-29 12:10:00,59.0,58.2,30.10,SSW,193,0.0,2.0,97,0.02,,---,0.24,VWS V14.01,2013-04-29 16:10:00,
2013-04-29 12:15:00,59.1,58.2,30.10,SSW,212,0.0,2.0,97,0.02,,---,0.24,VWS V14.01,2013-04-29 16:15:00,
2013-04-29 12:20:00,59.1,58.2,30.10,SSW,211,1.0,2.0,97,0.02,,---,0.24,VWS V14.01,2013-04-29 16:20:00,
2013-04-29 12:25:00,59.1,58.0,30.10,SSW,212,0.0,2.0,96,0.02,,---,0.24,VWS V14.01,2013-04-29 16:25:00,
2013-04-29 12:30:00,59.4,58.5,30.10,SSW,194,0.0,2.0,97,0.02,,---,0.24,VWS V14.01,2013-04-29 16:30:00,
2013-04-29 12:35:00,59.4,58.3,30.10,SSE,148,0.0,2.0,96,0.01,,---,0.24,VWS V14.01,2013-04-29 16:35:00,
2013-04-29 12:40:00,59.5,58.4,30.10,SSW,205,0.0,3.0,96,0.01,,---,0.24,VWS V14.01,2013-04-29 16:40:00,
2013-04-29 12:45:00,59.5,58.4,30.10,West,262,0.0,3.0,96,0.01,,---,0.24,VWS V14.01,2013-04-29 16:45:00,
2013-04-29 12:50:00,59.6,58.5,30.10,West,262,0.0,3.0,96,0.01,,---,0.24,VWS V14.01,2013-04-29 16:50:00,
2013-04-29 12:55:00,59.7,58.6,30.10,WSW,243,0.0,3.0,96,0.01,,---,0.24,VWS V14.01,2013-04-29 16:55:00,
2013-04-29 13:00:00,59.5,58.1,30.09,ESE,119,0.0,3.0,95,0.01,,---,0.24,VWS V14.01,2013-04-29 17:00:00,
2013-04-29 13:05:00,59.2,57.8,30.10,SSE,148,0.0,2.0,95,0.00,,---,0.24,VWS V14.01,2013-04-29 17:05:00,
2013-04-29 13:10:00,59.0,57.6,30.10,SE,126,1.0,3.0,95,0.00,,---,0.24,VWS V14.01,2013-04-29 17:10:00,
2013-04-29 13:15:00,59.0,57.6,30.10,ESE,122,0.0,3.0,95,0.00,,---,0.24,VWS V14.01,2013-04-29 17:15:00,
2013-04-29 13:20:00,59.1,57.7,30.10,ESE,114,0.0,3.0,95,0.00,,---,0.24,VWS V14.01,2013-04-29 17:20:00,
2013-04-29 13:25:00,59.1,57.7,30.10,SSE,165,0.0,3.0,95,0.00,,---,0.24,VWS V14.01,2013-04-29 17:25:00,
2013-04-29 13:30:00,59.2,57.8,30.09,SSW,194,0.0,7.0,95,0.00,,---,0.24,VWS V14.01,2013-04-29 17:30:00,
2013-04-29 13:35:00,59.3,57.9,30.10,ENE,63,0.0,3.0,95,0.00,,---,0.24,VWS V14.01,2013-04-29 17:35:00,
2013-04-29 13:40:00,59.3,57.9,30.10,SE,124,1.0,4.0,95,0.00,,---,0.24,VWS V14.01,2013-04-29 17:40:00,
2013-04-29 13:45:00,59.2,57.8,30.09,SSW,198,1.0,5.0,95,0.01,,---,0.25,VWS V14.01,2013-04-29 17:45:00,
2013-04-29 13:50:00,59.4,58.0,30.09,ESE,113,0.0,5.0,95,0.01,,---,0.25,VWS V14.01,2013-04-29 17:50:00,
2013-04-29 13:55:00,59.6,58.2,30.09,SSW,200,1.0,5.0,95,0.01,,---,0.25,VWS V14.01,2013-04-29 17:55:00,
2013-04-29 14:00:00,59.5,57.8,30.09,West,262,0.0,5.0,94,0.01,,---,0.25,VWS V14.01,2013-04-29 18:00:00,
2013-04-29 14:05:00,59.6,57.9,30.09,ESE,117,0.0,1.0,94,0.02,,---,0.26,VWS V14.01,2013-04-29 18:05:00,
2013-04-29 14:10:00,59.6,57.9,30.09,SSE,148,1.0,2.0,94,0.02,,---,0.26,VWS V14.01,2013-04-29 18:10:00,
2013-04-29 14:15:00,59.5,57.8,30.09,SE,143,0.0,4.0,94,0.02,,---,0.26,VWS V14.01,2013-04-29 18:15:00,
2013-04-29 14:20:00,59.6,58.2,30.09,SW,218,0.0,4.0,95,0.02,,---,0.26,VWS V14.01,2013-04-29 18:20:00,
2013-04-29 14:25:00,59.7,58.0,30.09,SW,218,0.0,4.0,94,0.03,,---,0.27,VWS V14.01,2013-04-29 18:25:00,
2013-04-29 14:30:00,59.7,58.0,30.09,SW,218,0.0,4.0,94,0.03,,---,0.27,VWS V14.01,2013-04-29 18:30:00,
2013-04-29 14:35:00,59.8,58.4,30.09,SSW,212,0.0,1.0,95,0.03,,---,0.27,VWS V14.01,2013-04-29 18:35:00,
2013-04-29 14:40:00,59.6,57.9,30.09,South,187,0.0,3.0,94,0.03,,---,0.27,VWS V14.01,2013-04-29 18:40:00,
2013-04-29 14:45:00,59.3,57.6,30.09,SSE,153,0.0,3.0,94,0.04,,---,0.28,VWS V14.01,2013-04-29 18:45:00,
2013-04-29 14:50:00,59.5,57.8,30.09,SSE,166,0.0,3.0,94,0.04,,---,0.28,VWS V14.01,2013-04-29 18:50:00,
2013-04-29 14:55:00,59.4,57.7,30.09,SSE,165,1.0,3.0,94,0.04,,---,0.28,VWS V14.01,2013-04-29 18:55:00,
2013-04-29 15:00:00,59.5,57.8,30.09,SSE,165,0.0,3.0,94,0.05,,---,0.29,VWS V14.01,2013-04-29 19:00:00,
2013-04-29 15:05:00,59.5,57.8,30.08,SSE,165,0.0,1.0,94,0.04,,---,0.29,VWS V14.01,2013-04-29 19:05:00,
2013-04-29 15:10:00,59.3,57.6,30.08,NE,56,0.0,2.0,94,0.05,,---,0.30,VWS V14.01,2013-04-29 19:10:00,
2013-04-29 15:15:00,59.3,57.6,30.08,ESE,120,1.0,2.0,94,0.06,,---,0.31,VWS V14.01,2013-04-29 19:15:00,
2013-04-29 15:20:00,59.1,57.4,30.08,SSE,158,0.0,2.0,94,0.06,,---,0.31,VWS V14.01,2013-04-29 19:20:00,
2013-04-29 15:25:00,59.1,57.4,30.08,SSE,159,0.0,4.0,94,0.06,,---,0.31,VWS V14.01,2013-04-29 19:25:00,
2013-04-29 15:30:00,59.3,57.9,30.08,SSE,160,1.0,4.0,95,0.07,,---,0.32,VWS V14.01,2013-04-29 19:30:00,
2013-04-29 15:35:00,59.2,57.8,30.08,West,264,0.0,2.0,95,0.05,,---,0.32,VWS V14.01,2013-04-29 19:35:00,
2013-04-29 15:40:00,59.3,57.9,30.08,SW,225,0.0,3.0,95,0.05,,---,0.32,VWS V14.01,2013-04-29 19:40:00,
2013-04-29 15:45:00,59.3,57.9,30.08,East,97,0.0,4.0,95,0.05,,---,0.32,VWS V14.01,2013-04-29 19:45:00,
2013-04-29 15:50:00,59.3,57.9,30.08,East,89,0.0,4.0,95,0.05,,---,0.32,VWS V14.01,2013-04-29 19:50:00,
2013-04-29 15:55:00,59.4,58.0,30.08,SW,226,0.0,4.0,95,0.05,,---,0.32,VWS V14.01,2013-04-29 19:55:00,
2013-04-29 16:00:00,59.6,58.2,30.08,WSW,248,0.0,4.0,95,0.05,,---,0.32,VWS V14.01,2013-04-29 20:00:00,
2013-04-29 16:05:00,59.7,58.3,30.07,WSW,248,0.0,0.0,95,0.03,,---,0.32,VWS V14.01,2013-04-29 20:05:00,
2013-04-29 16:10:00,59.7,58.0,30.07,ESE,110,0.0,2.0,94,0.03,,---,0.32,VWS V14.01,2013-04-29 20:10:00,
2013-04-29 16:15:00,59.6,57.9,30.07,NNE,19,0.0,2.0,94,0.03,,---,0.32,VWS V14.01,2013-04-29 20:15:00,
2013-04-29 16:20:00,59.6,57.9,30.07,NNE,26,0.0,2.0,94,0.03,,---,0.32,VWS V14.01,2013-04-29 20:20:00,
2013-04-29 16:25:00,59.5,57.8,30.07,ESE,104,0.0,2.0,94,0.03,,---,0.32,VWS V14.01,2013-04-29 20:25:00,
2013-04-29 16:30:00,59.5,57.8,30.07,East,79,1.0,2.0,94,0.03,,---,0.32,VWS V14.01,2013-04-29 20:30:00,
2013-04-29 16:35:00,59.4,57.7,30.07,North,9,0.0,1.0,94,0.00,,---,0.32,VWS V14.01,2013-04-29 20:35:00,
2013-04-29 16:40:00,59.2,57.5,30.07,WSW,256,0.0,1.0,94,0.00,,---,0.32,VWS V14.01,2013-04-29 20:40:00,
2013-04-29 16:45:00,59.1,57.4,30.07,ENE,63,2.0,2.0,94,0.01,,---,0.33,VWS V14.01,2013-04-29 20:45:00,
2013-04-29 16:50:00,59.0,57.3,30.07,WSW,249,0.0,2.0,94,0.01,,---,0.33,VWS V14.01,2013-04-29 20:50:00,
2013-04-29 16:55:00,58.7,57.0,30.07,ENE,58,2.0,3.0,94,0.01,,---,0.33,VWS V14.01,2013-04-29 20:55:00,
2013-04-29 17:00:00,58.5,56.8,30.07,ESE,120,0.0,3.0,94,0.01,,---,0.33,VWS V14.01,2013-04-29 21:00:00,
2013-04-29 17:05:00,58.4,56.7,30.07,South,187,0.0,2.0,94,0.01,,---,0.33,VWS V14.01,2013-04-29 21:05:00,
2013-04-29 17:10:00,58.4,56.7,30.07,ESE,104,0.0,2.0,94,0.01,,---,0.33,VWS V14.01,2013-04-29 21:10:00,
2013-04-29 17:15:00,58.2,56.5,30.07,NW,313,1.0,5.0,94,0.02,,---,0.34,VWS V14.01,2013-04-29 21:15:00,
2013-04-29 17:20:00,58.1,56.4,30.08,West,276,0.0,5.0,94,0.02,,---,0.34,VWS V14.01,2013-04-29 21:20:00,
2013-04-29 17:25:00,57.9,56.2,30.08,SE,131,0.0,5.0,94,0.02,,---,0.34,VWS V14.01,2013-04-29 21:25:00,
2013-04-29 17:30:00,57.8,56.1,30.08,ESE,110,0.0,5.0,94,0.02,,---,0.34,VWS V14.01,2013-04-29 21:30:00,
2013-04-29 17:35:00,57.6,55.9,30.08,WSW,249,0.0,1.0,94,0.02,,---,0.34,VWS V14.01,2013-04-29 21:35:00,
2013-04-29 17:40:00,57.4,55.7,30.08,NNE,33,2.0,2.0,94,0.02,,---,0.34,VWS V14.01,2013-04-29 21:40:00,
2013-04-29 17:45:00,57.2,55.5,30.08,ENE,74,0.0,2.0,94,0.02,,---,0.34,VWS V14.01,2013-04-29 21:45:00,
2013-04-29 17:50:00,57.1,55.4,30.08,NNW,343,0.0,2.0,94,0.02,,---,0.34,VWS V14.01,2013-04-29 21:50:00,
2013-04-29 17:55:00,57.1,55.4,30.08,NNE,19,0.0,2.0,94,0.02,,---,0.34,VWS V14.01,2013-04-29 21:55:00,
2013-04-29 18:00:00,57.1,55.4,30.08,WNW,295,0.0,2.0,94,0.02,,---,0.34,VWS V14.01,2013-04-29 22:00:00,
2013-04-29 18:05:00,57.1,55.7,30.08,SE,139,0.0,1.0,95,0.01,,---,0.34,VWS V14.01,2013-04-29 22:05:00,
2013-04-29 18:10:00,57.0,55.3,30.08,SE,131,0.0,1.0,94,0.01,,---,0.34,VWS V14.01,2013-04-29 22:10:00,
2013-04-29 18:15:00,56.9,55.2,30.08,NE,40,0.0,1.0,94,0.01,,---,0.34,VWS V14.01,2013-04-29 22:15:00,
2013-04-29 18:20:00,56.8,55.1,30.08,NE,40,0.0,1.0,94,0.01,,---,0.34,VWS V14.01,2013-04-29 22:20:00,
2013-04-29 18:25:00,56.8,55.1,30.08,ENE,75,0.0,1.0,94,0.01,,---,0.34,VWS V14.01,2013-04-29 22:25:00,
2013-04-29 18:30:00,56.8,55.1,30.08,ENE,69,1.0,1.0,94,0.01,,---,0.34,VWS V14.01,2013-04-29 22:30:00,
2013-04-29 18:35:00,56.7,55.0,30.08,NNE,23,1.0,2.0,94,0.00,,---,0.34,VWS V14.01,2013-04-29 22:35:00,
2013-04-29 18:40:00,56.7,55.0,30.08,NNE,31,0.0,2.0,94,0.00,,---,0.34,VWS V14.01,2013-04-29 22:40:00,
2013-04-29 18:45:00,56.6,54.9,30.08,NE,37,0.0,2.0,94,0.00,,---,0.34,VWS V14.01,2013-04-29 22:45:00,
2013-04-29 18:50:00,56.6,54.9,30.08,NE,56,0.0,2.0,94,0.00,,---,0.34,VWS V14.01,2013-04-29 22:50:00,
2013-04-29 18:55:00,56.6,54.9,30.08,NE,56,2.0,3.0,94,0.00,,---,0.34,VWS V14.01,2013-04-29 22:55:00,
2013-04-29 19:00:00,56.5,54.8,30.08,NNE,30,1.0,3.0,94,0.00,,---,0.34,VWS V14.01,2013-04-29 23:00:00,
2013-04-29 19:05:00,56.4,54.7,30.08,NE,52,1.0,2.0,94,0.00,,---,0.34,VWS V14.01,2013-04-29 23:05:00,
2013-04-29 19:10:00,56.2,54.5,30.09,East,91,0.0,2.0,94,0.00,,---,0.34,VWS V14.01,2013-04-29 23:10:00,
2013-04-29 19:15:00,56.0,54.3,30.09,ENE,61,0.0,3.0,94,0.00,,---,0.34,VWS V14.01,2013-04-29 23:15:00,
2013-04-29 19:20:00,55.9,54.2,30.09,NNE,30,1.0,3.0,94,0.00,,---,0.34,VWS V14.01,2013-04-29 23:20:00,
2013-04-29 19:25:00,55.8,54.1,30.09,ESE,111,0.0,4.0,94,0.00,,---,0.34,VWS V14.01,2013-04-29 23:25:00,
2013-04-29 19:30:00,55.9,54.2,30.08,SE,145,0.0,4.0,94,0.00,,---,0.34,VWS V14.01,2013-04-29 23:30:00,
2013-04-29 19:35:00,55.9,54.2,30.09,WNW,292,1.0,1.0,94,0.00,,---,0.34,VWS V14.01,2013-04-29 23:35:00,
2013-04-29 19:40:00,55.8,54.1,30.09,SE,132,0.0,1.0,94,0.00,,---,0.34,VWS V14.01,2013-04-29 23:40:00,
2013-04-29 19:45:00,55.8,54.1,30.09,West,259,2.0,2.0,94,0.00,,---,0.34,VWS V14.01,2013-04-29 23:45:00,
2013-04-29 19:50:00,55.8,54.1,30.09,North,6,2.0,2.0,94,0.00,,---,0.34,VWS V14.01,2013-04-29 23:50:00,
2013-04-29 19:55:00,55.7,54.0,30.09,ENE,66,0.0,4.0,94,0.00,,---,0.34,VWS V14.01,2013-04-29 23:55:00,
2013-04-29 20:00:00,55.7,54.0,30.09,ENE,76,0.0,4.0,94,0.00,,---,0.34,VWS V14.01,2013-04-30 00:00:00,
2013-04-29 20:05:00,55.6,53.9,30.09,NNE,32,0.0,2.0,94,0.00,,---,0.34,VWS V14.01,2013-04-30 00:05:00,
2013-04-29 20:10:00,55.5,53.8,30.09,NE,50,0.0,2.0,94,0.00,,---,0.34,VWS V14.01,2013-04-30 00:10:00,
2013-04-29 20:15:00,55.5,53.8,30.10,NE,49,0.0,2.0,94,0.00,,---,0.34,VWS V14.01,2013-04-30 00:15:00,
2013-04-29 20:20:00,55.5,53.8,30.10,ENE,75,0.0,2.0,94,0.00,,---,0.34,VWS V14.01,2013-04-30 00:20:00,
2013-04-29 20:25:00,55.4,53.7,30.10,NNE,33,1.0,2.0,94,0.00,,---,0.34,VWS V14.01,2013-04-30 00:25:00,
2013-04-29 20:30:00,55.4,53.7,30.10,NE,52,0.0,2.0,94,0.00,,---,0.34,VWS V14.01,2013-04-30 00:30:00,
2013-04-29 20:35:00,55.4,53.7,30.10,NE,44,0.0,4.0,94,0.00,,---,0.34,VWS V14.01,2013-04-30 00:35:00,
2013-04-29 20:40:00,55.4,53.7,30.10,ENE,58,0.0,4.0,94,0.00,,---,0.34,VWS V14.01,2013-04-30 00:40:00,
2013-04-29 20:45:00,55.3,53.6,30.10,ENE,65,0.0,4.0,94,0.00,,---,0.34,VWS V14.01,2013-04-30 00:45:00,
2013-04-29 20:50:00,55.4,53.7,30.10,ENE,65,0.0,4.0,94,0.00,,---,0.34,VWS V14.01,2013-04-30 00:50:00,
2013-04-29 20:55:00,55.4,53.7,30.11,ENE,65,0.0,4.0,94,0.00,,---,0.34,VWS V14.01,2013-04-30 00:55:00,
2013-04-29 21:00:00,55.4,54.0,30.11,ENE,65,0.0,4.0,95,0.00,,---,0.34,VWS V14.01,2013-04-30 01:00:00,
2013-04-29 21:05:00,55.4,54.0,30.11,NE,46,0.0,2.0,95,0.00,,---,0.34,VWS V14.01,2013-04-30 01:05:00,
2013-04-29 21:10:00,55.4,54.0,30.11,North,8,0.0,2.0,95,0.00,,---,0.34,VWS V14.01,2013-04-30 01:10:00,
2013-04-29 21:15:00,55.4,54.0,30.11,WSW,248,0.0,2.0,95,0.00,,---,0.34,VWS V14.01,2013-04-30 01:15:00,
2013-04-29 21:20:00,55.4,54.0,30.11,WSW,248,0.0,2.0,95,0.00,,---,0.34,VWS V14.01,2013-04-30 01:20:00,
2013-04-29 21:25:00,55.4,54.0,30.11,NNE,30,0.0,5.0,95,0.00,,---,0.34,VWS V14.01,2013-04-30 01:25:00,
2013-04-29 21:30:00,55.4,54.0,30.11,NNE,30,0.0,5.0,95,0.00,,---,0.34,VWS V14.01,2013-04-30 01:30:00,
2013-04-29 21:35:00,55.4,54.0,30.11,NNE,30,0.0,1.0,95,0.00,,---,0.34,VWS V14.01,2013-04-30 01:35:00,
2013-04-29 21:40:00,55.3,53.9,30.11,ENE,68,0.0,1.0,95,0.00,,---,0.34,VWS V14.01,2013-04-30 01:40:00,
2013-04-29 21:45:00,55.3,53.9,30.12,ENE,68,0.0,1.0,95,0.00,,---,0.34,VWS V14.01,2013-04-30 01:45:00,
2013-04-29 21:50:00,55.2,53.8,30.12,ENE,68,0.0,1.0,95,0.00,,---,0.34,VWS V14.01,2013-04-30 01:50:00,
2013-04-29 21:55:00,55.2,53.8,30.12,ENE,61,0.0,1.0,95,0.00,,---,0.34,VWS V14.01,2013-04-30 01:55:00,
2013-04-29 22:00:00,55.2,53.8,30.12,ENE,61,0.0,1.0,95,0.00,,---,0.34,VWS V14.01,2013-04-30 02:00:00,
2013-04-29 22:05:00,55.2,53.8,30.12,ENE,61,0.0,0.0,95,0.00,,---,0.34,VWS V14.01,2013-04-30 02:05:00,
2013-04-29 22:10:00,55.2,53.8,30.12,NE,36,2.0,2.0,95,0.00,,---,0.34,VWS V14.01,2013-04-30 02:10:00,
2013-04-29 22:15:00,55.2,53.8,30.12,ESE,105,0.0,2.0,95,0.00,,---,0.34,VWS V14.01,2013-04-30 02:15:00,
2013-04-29 22:20:00,55.1,53.7,30.12,ESE,104,0.0,2.0,95,0.00,,---,0.34,VWS V14.01,2013-04-30 02:20:00,
2013-04-29 22:25:00,55.1,54.0,30.12,ESE,105,0.0,2.0,96,0.00,,---,0.34,VWS V14.01,2013-04-30 02:25:00,
2013-04-29 22:30:00,55.0,53.9,30.12,SW,222,0.0,2.0,96,0.00,,---,0.34,VWS V14.01,2013-04-30 02:30:00,
2013-04-29 22:35:00,54.9,53.8,30.12,SE,145,0.0,1.0,96,0.00,,---,0.34,VWS V14.01,2013-04-30 02:35:00,
2013-04-29 22:40:00,54.9,53.8,30.12,SE,146,0.0,1.0,96,0.00,,---,0.34,VWS V14.01,2013-04-30 02:40:00,
2013-04-29 22:45:00,54.8,53.7,30.12,SE,146,0.0,1.0,96,0.00,,---,0.34,VWS V14.01,2013-04-30 02:45:00,
2013-04-29 22:50:00,54.8,53.7,30.12,ESE,122,0.0,1.0,96,0.00,,---,0.34,VWS V14.01,2013-04-30 02:50:00,
2013-04-29 22:55:00,54.7,53.6,30.12,SE,124,0.0,1.0,96,0.00,,---,0.34,VWS V14.01,2013-04-30 02:55:00,
2013-04-29 23:00:00,54.7,53.6,30.12,ESE,123,0.0,1.0,96,0.00,,---,0.34,VWS V14.01,2013-04-30 03:00:00,
2013-04-29 23:05:00,54.7,53.6,30.12,SSE,159,0.0,0.0,96,0.00,,---,0.34,VWS V14.01,2013-04-30 03:05:00,
2013-04-29 23:10:00,54.7,53.6,30.12,SSE,161,0.0,0.0,96,0.00,,---,0.34,VWS V14.01,2013-04-30 03:10:00,
2013-04-29 23:15:00,54.6,53.5,30.12,ESE,116,0.0,1.0,96,0.00,,---,0.34,VWS V14.01,2013-04-30 03:15:00,
2013-04-29 23:20:00,54.6,53.5,30.12,WNW,297,0.0,1.0,96,0.00,,---,0.34,VWS V14.01,2013-04-30 03:20:00,
2013-04-29 23:25:00,54.5,53.4,30.12,NNE,22,0.0,1.0,96,0.00,,---,0.34,VWS V14.01,2013-04-30 03:25:00,
2013-04-29 23:30:00,54.5,53.4,30.12,NNW,346,0.0,2.0,96,0.00,,---,0.34,VWS V14.01,2013-04-30 03:30:00,
2013-04-29 23:35:00,54.5,53.4,30.12,West,273,0.0,0.0,96,0.00,,---,0.34,VWS V14.01,2013-04-30 03:35:00,
2013-04-29 23:40:00,54.5,53.4,30.12,NE,47,0.0,1.0,96,0.00,,---,0.34,VWS V14.01,2013-04-30 03:40:00,
2013-04-29 23:45:00,54.5,53.4,30.12,NE,47,0.0,1.0,96,0.00,,---,0.34,VWS V14.01,2013-04-30 03:45:00,
2013-04-29 23:50:00,54.5,53.4,30.12,NE,47,1.0,1.0,96,0.00,,---,0.34,VWS V14.01,2013-04-30 03:50:00,
2013-04-29 23:55:00,54.4,53.3,30.12,NE,46,0.0,1.0,96,0.00,,---,0.34,VWS V14.01,2013-04-30 03:55:00,